Time;durP1;ratioP1;P1;durP2;ratioP2;P2;SDS_P1;SDS_P2;PMS_P1;PMS_P2;Temp;Humidity;BMP_temperature;BMP_pressure;BME280_temperature;BME280_humidity;BME280_pressure;Samples;Min_cycle;Max_cycle;Signal;HPM_P1;HPM_P2
2022/05/06 00:01:53;;;;;;;;;;;21.80;54.50;;;;;;5018782;28;20048;-59
2022/05/06 00:04:18;;;;;;;;;;;21.80;54.50;;;;;;5018217;28;19921;-56
2022/05/06 00:06:44;;;;;;;;;;;21.80;54.50;;;;;;5003829;28;19936;-55
2022/05/06 00:09:09;;;;;;;;;;;21.80;54.50;;;;;;5017810;28;19922;-55
2022/05/06 00:11:35;;;;;;;;;;;21.80;54.50;;;;;;5002071;28;19913;-55
2022/05/06 00:14:00;;;;;;;;;;;21.80;54.50;;;;;;5003791;28;19925;-59
2022/05/06 00:16:26;;;;;;;;;;;21.80;54.40;;;;;;5019954;28;19964;-58
2022/05/06 00:18:52;;;;;;;;;;;21.80;54.40;;;;;;5003364;28;20000;-56
2022/05/06 00:21:17;;;;;;;;;;;21.80;54.50;;;;;;5004442;28;20285;-58
2022/05/06 00:23:42;;;;;;;;;;;21.80;54.40;;;;;;5003909;28;19944;-57
2022/05/06 00:26:08;;;;;;;;;;;21.80;54.40;;;;;;5002958;28;19922;-58
2022/05/06 00:28:34;;;;;;;;;;;21.80;54.50;;;;;;5003133;28;19913;-55
2022/05/06 00:31:01;;;;;;;;;;;21.80;54.40;;;;;;5018740;28;19914;-55
2022/05/06 00:33:26;;;;;;;;;;;21.70;54.40;;;;;;5003191;28;19976;-58
2022/05/06 00:35:55;;;;;;;;;;;21.80;54.40;;;;;;5002871;28;19948;-57
2022/05/06 00:38:21;;;;;;;;;;;21.80;54.40;;;;;;5001850;28;19914;-58
2022/05/06 00:40:46;;;;;;;;;;;21.80;54.40;;;;;;5002469;28;19921;-58
2022/05/06 00:43:12;;;;;;;;;;;21.80;54.40;;;;;;5002432;28;19920;-58
2022/05/06 00:45:51;;;;;;;;;;;21.70;54.40;;;;;;5003538;28;19921;-59
2022/05/06 00:48:17;;;;;;;;;;;21.70;54.40;;;;;;5002938;28;19917;-58
2022/05/06 00:50:43;;;;;;;;;;;21.80;54.30;;;;;;5002251;28;20004;-56
2022/05/06 00:53:08;;;;;;;;;;;21.70;54.20;;;;;;5017812;28;19948;-59
2022/05/06 00:55:34;;;;;;;;;;;21.70;54.20;;;;;;5003474;28;19943;-59
2022/05/06 00:57:59;;;;;;;;;;;21.70;54.20;;;;;;5003551;28;19956;-57
2022/05/06 01:03:28;;;;;;;;;;;21.70;54.20;;;;;;4997161;28;19966;-60
2022/05/06 01:05:53;;;;;;;;;;;21.80;54.20;;;;;;5007081;28;19947;-57
2022/05/06 01:08:19;;;;;;;;;;;21.70;54.20;;;;;;5000843;28;19920;-57
2022/05/06 01:13:49;;;;;;;;;;;21.70;54.20;;;;;;4950888;28;20021;-57
2022/05/06 01:16:14;;;;;;;;;;;21.70;54.20;;;;;;4999464;28;19957;-59
2022/05/06 01:18:40;;;;;;;;;;;21.70;54.20;;;;;;5000514;28;20116;-57
2022/05/06 01:21:06;;;;;;;;;;;21.70;54.20;;;;;;5016219;28;20593;-58
2022/05/06 01:23:31;;;;;;;;;;;21.70;54.20;;;;;;5002198;28;19920;-55
2022/05/06 01:25:57;;;;;;;;;;;21.70;54.10;;;;;;5002122;28;19921;-56
2022/05/06 01:31:25;;;;;;;;;;;21.60;54.10;;;;;;5000626;28;19995;-57
2022/05/06 01:33:55;;;;;;;;;;;21.70;54.20;;;;;;5001893;28;20217;-58
2022/05/06 01:36:22;;;;;;;;;;;21.70;54.10;;;;;;5003034;28;19913;-57
2022/05/06 01:38:49;;;;;;;;;;;21.60;54.10;;;;;;5001614;28;19921;-57
2022/05/06 01:41:26;;;;;;;;;;;21.60;54.10;;;;;;5001973;28;19918;-57
2022/05/06 01:44:01;;;;;;;;;;;21.60;54.10;;;;;;5001981;28;20000;-57
2022/05/06 01:46:28;;;;;;;;;;;21.60;54.10;;;;;;5002240;28;19989;-57
2022/05/06 01:48:53;;;;;;;;;;;21.60;54.10;;;;;;5001108;28;20432;-56
2022/05/06 01:51:19;;;;;;;;;;;21.60;54.00;;;;;;4999180;28;19913;-58
2022/05/06 01:53:45;;;;;;;;;;;21.60;54.10;;;;;;5001544;28;19914;-56
2022/05/06 01:56:10;;;;;;;;;;;21.60;54.10;;;;;;5001745;28;19914;-57
2022/05/06 01:58:36;;;;;;;;;;;21.60;54.10;;;;;;5001149;28;20359;-58
2022/05/06 02:01:01;;;;;;;;;;;21.60;54.00;;;;;;5002035;28;20374;-57
2022/05/06 02:06:11;;;;;;;;;;;21.60;54.00;;;;;;5001144;28;20007;-55
2022/05/06 02:08:37;;;;;;;;;;;21.60;54.00;;;;;;5000997;28;19913;-54
2022/05/06 02:11:03;;;;;;;;;;;21.60;54.00;;;;;;5001598;28;20391;-54
2022/05/06 02:13:28;;;;;;;;;;;21.60;54.00;;;;;;5001478;28;19914;-53
2022/05/06 02:15:54;;;;;;;;;;;21.60;54.10;;;;;;5001395;28;19949;-53
2022/05/06 02:18:19;;;;;;;;;;;21.50;54.00;;;;;;5000796;28;20268;-56
2022/05/06 02:20:45;;;;;;;;;;;21.50;54.00;;;;;;5001197;28;20449;-56
2022/05/06 02:23:11;;;;;;;;;;;21.50;54.00;;;;;;5001954;28;19951;-57
2022/05/06 02:25:37;;;;;;;;;;;21.50;54.00;;;;;;4999955;28;20422;-55
2022/05/06 02:28:02;;;;;;;;;;;21.50;54.00;;;;;;5001718;28;19921;-54
2022/05/06 02:33:15;;;;;;;;;;;21.50;54.00;;;;;;5000787;28;19921;-55
2022/05/06 02:35:41;;;;;;;;;;;21.50;53.90;;;;;;5001034;28;19921;-55
2022/05/06 02:38:08;;;;;;;;;;;21.50;53.90;;;;;;5001312;28;19992;-56
2022/05/06 02:40:34;;;;;;;;;;;21.50;53.90;;;;;;5002402;28;19913;-56
2022/05/06 02:43:00;;;;;;;;;;;21.50;54.00;;;;;;5001762;28;19956;-57
2022/05/06 02:45:25;;;;;;;;;;;21.50;54.00;;;;;;4999879;28;19964;-55
2022/05/06 02:47:51;;;;;;;;;;;21.50;53.90;;;;;;5001507;28;19964;-56
2022/05/06 02:50:16;;;;;;;;;;;21.50;53.90;;;;;;4983635;28;19914;-57
2022/05/06 02:52:42;;;;;;;;;;;21.50;54.00;;;;;;5001582;28;20337;-53
2022/05/06 02:55:08;;;;;;;;;;;21.50;53.90;;;;;;5000903;28;19917;-56
2022/05/06 02:57:34;;;;;;;;;;;21.50;53.90;;;;;;5003199;28;20390;-56
2022/05/06 02:59:59;;;;;;;;;;;21.50;53.90;;;;;;5001564;28;19930;-56
2022/05/06 03:02:24;;;;;;;;;;;21.50;53.90;;;;;;5002276;28;19921;-57
2022/05/06 03:04:50;;;;;;;;;;;21.40;53.80;;;;;;5000457;28;19922;-54
2022/05/06 03:07:15;;;;;;;;;;;21.40;53.80;;;;;;5002215;28;19928;-55
2022/05/06 03:09:41;;;;;;;;;;;21.50;53.90;;;;;;5001606;28;20422;-55
2022/05/06 03:12:07;;;;;;;;;;;21.40;53.80;;;;;;5000860;28;19913;-53
2022/05/06 03:14:33;;;;;;;;;;;21.40;53.80;;;;;;5002330;28;19917;-55
2022/05/06 03:16:58;;;;;;;;;;;21.50;53.90;;;;;;5000829;28;20404;-55
2022/05/06 03:19:24;;;;;;;;;;;21.40;53.80;;;;;;5001057;28;19940;-55
2022/05/06 03:21:52;;;;;;;;;;;21.40;53.80;;;;;;5000802;28;19928;-55
2022/05/06 03:24:18;;;;;;;;;;;21.40;53.80;;;;;;5001334;28;19921;-53
2022/05/06 03:26:43;;;;;;;;;;;21.40;53.80;;;;;;5001300;28;19914;-55
2022/05/06 03:29:09;;;;;;;;;;;21.40;54.00;;;;;;5000839;28;20425;-55
2022/05/06 03:31:35;;;;;;;;;;;21.40;53.80;;;;;;5016633;28;19925;-54
2022/05/06 03:34:01;;;;;;;;;;;21.40;53.80;;;;;;5001058;28;19914;-54
2022/05/06 03:36:27;;;;;;;;;;;21.40;53.80;;;;;;5015586;28;19914;-53
2022/05/06 03:38:52;;;;;;;;;;;21.40;53.80;;;;;;4999864;28;19914;-53
2022/05/06 03:41:17;;;;;;;;;;;21.40;53.80;;;;;;5000127;28;19978;-56
2022/05/06 03:43:43;;;;;;;;;;;21.40;53.80;;;;;;5000047;28;20507;-52
2022/05/06 03:46:08;;;;;;;;;;;21.40;53.80;;;;;;5000532;28;19917;-54
2022/05/06 03:48:34;;;;;;;;;;;21.40;53.80;;;;;;5000786;28;19917;-55
2022/05/06 03:53:44;;;;;;;;;;;21.40;53.80;;;;;;4999471;28;19964;-53
2022/05/06 03:56:09;;;;;;;;;;;21.40;53.80;;;;;;5000156;28;19988;-56
2022/05/06 03:58:34;;;;;;;;;;;21.40;53.80;;;;;;4999114;28;19964;-53
2022/05/06 04:01:00;;;;;;;;;;;21.30;53.80;;;;;;5000454;28;19920;-56
2022/05/06 04:03:25;;;;;;;;;;;21.40;53.80;;;;;;4999806;28;20297;-53
2022/05/06 04:05:52;;;;;;;;;;;21.30;53.80;;;;;;5000648;28;19918;-56
2022/05/06 04:08:18;;;;;;;;;;;21.30;53.80;;;;;;5003106;28;19917;-52
2022/05/06 04:10:44;;;;;;;;;;;21.30;53.80;;;;;;5003548;28;19940;-54
2022/05/06 04:13:10;;;;;;;;;;;21.30;53.80;;;;;;5017449;28;19963;-54
2022/05/06 04:15:36;;;;;;;;;;;21.30;53.80;;;;;;5003147;28;19914;-53
2022/05/06 04:18:01;;;;;;;;;;;21.30;53.80;;;;;;5002605;28;19917;-55
2022/05/06 04:23:29;;;;;;;;;;;21.30;53.80;;;;;;5002617;28;19968;-54
2022/05/06 04:26:01;;;;;;;;;;;21.30;53.80;;;;;;5002873;28;19918;-53
2022/05/06 04:28:27;;;;;;;;;;;21.30;53.70;;;;;;5002149;28;20582;-57
2022/05/06 04:30:52;;;;;;;;;;;21.40;53.60;;;;;;5002397;28;19913;-53
2022/05/06 04:33:18;;;;;;;;;;;21.40;53.60;;;;;;5002339;28;19922;-52
2022/05/06 04:35:44;;;;;;;;;;;21.40;53.60;;;;;;5002998;28;19919;-57
2022/05/06 04:38:09;;;;;;;;;;;21.40;53.50;;;;;;5002369;28;20590;-52
2022/05/06 04:40:34;;;;;;;;;;;21.40;53.50;;;;;;5002566;28;19961;-52
2022/05/06 04:43:06;;;;;;;;;;;21.40;53.60;;;;;;5017782;28;19936;-55
2022/05/06 04:45:35;;;;;;;;;;;21.40;53.50;;;;;;5002154;28;19980;-55
2022/05/06 04:48:01;;;;;;;;;;;21.40;53.60;;;;;;5005748;28;20012;-54
2022/05/06 04:50:27;;;;;;;;;;;21.40;53.70;;;;;;5001538;28;20396;-55
2022/05/06 04:52:53;;;;;;;;;;;21.40;53.80;;;;;;5001228;28;19988;-56
2022/05/06 04:55:18;;;;;;;;;;;21.40;53.80;;;;;;5002245;28;20139;-54
2022/05/06 04:57:44;;;;;;;;;;;21.40;54.50;;;;;;5001290;28;19913;-57
2022/05/06 05:00:09;;;;;;;;;;;21.40;54.60;;;;;;5000404;28;20334;-57
2022/05/06 05:02:35;;;;;;;;;;;21.50;54.60;;;;;;5001201;28;20019;-57
2022/05/06 05:05:00;;;;;;;;;;;21.50;54.50;;;;;;5000482;28;20374;-56
2022/05/06 05:07:26;;;;;;;;;;;21.60;54.50;;;;;;5000478;28;19987;-56
2022/05/06 05:09:51;;;;;;;;;;;21.60;54.50;;;;;;5000244;28;19913;-55
2022/05/06 05:12:17;;;;;;;;;;;21.60;54.60;;;;;;5000712;28;19913;-56
2022/05/06 05:14:42;;;;;;;;;;;21.70;54.50;;;;;;5000712;28;19952;-57
2022/05/06 05:17:11;;;;;;;;;;;21.70;54.50;;;;;;5000602;28;19913;-60
2022/05/06 05:19:37;;;;;;;;;;;21.70;54.50;;;;;;5001166;28;20008;-59
2022/05/06 05:22:03;;;;;;;;;;;21.70;54.50;;;;;;4984103;28;20032;-58
2022/05/06 05:24:28;;;;;;;;;;;21.70;54.50;;;;;;5001499;28;19917;-57
2022/05/06 05:29:57;;;;;;;;;;;21.70;54.80;;;;;;4999847;28;19952;-58
2022/05/06 05:32:22;;;;;;;;;;;21.60;54.60;;;;;;4998419;28;20334;-58
2022/05/06 05:34:48;;;;;;;;;;;21.60;54.40;;;;;;5000619;28;19914;-56
2022/05/06 05:37:13;;;;;;;;;;;21.60;54.50;;;;;;5002186;28;19914;-56
2022/05/06 05:39:39;;;;;;;;;;;21.60;54.70;;;;;;5002132;28;20360;-58
2022/05/06 05:42:05;;;;;;;;;;;21.60;54.70;;;;;;5002313;28;20367;-56
2022/05/06 05:49:59;;;;;;;;;;;21.60;54.70;;;;;;4999949;28;20444;-56
2022/05/06 05:52:24;;;;;;;;;;;21.50;54.60;;;;;;5015881;28;19913;-56
2022/05/06 05:54:49;;;;;;;;;;;21.50;54.60;;;;;;5001250;28;19914;-58
2022/05/06 05:57:15;;;;;;;;;;;21.50;54.50;;;;;;5016764;28;19921;-60
2022/05/06 05:59:41;;;;;;;;;;;21.50;54.80;;;;;;5001120;28;19913;-58
2022/05/06 06:02:07;;;;;;;;;;;21.50;54.90;;;;;;5001425;28;19918;-57
2022/05/06 06:04:33;;;;;;;;;;;21.50;54.80;;;;;;5001247;28;19949;-59
2022/05/06 06:06:58;;;;;;;;;;;21.40;54.70;;;;;;5001469;28;19914;-60
2022/05/06 06:09:24;;;;;;;;;;;21.50;54.70;;;;;;5001024;28;19948;-56
2022/05/06 06:11:49;;;;;;;;;;;21.50;54.80;;;;;;5001458;28;20563;-58
2022/05/06 06:14:16;;;;;;;;;;;21.50;54.80;;;;;;5001635;28;19913;-57
2022/05/06 06:16:41;;;;;;;;;;;21.50;55.00;;;;;;5000679;28;19919;-59
2022/05/06 06:19:07;;;;;;;;;;;21.50;55.10;;;;;;5001638;28;19913;-53
2022/05/06 06:21:33;;;;;;;;;;;21.50;55.50;;;;;;5021709;23;19917;-58
2022/05/06 06:23:58;;;;;;;;;;;21.60;56.20;;;;;;4999480;28;20573;-57
2022/05/06 06:26:24;;;;;;;;;;;21.60;56.00;;;;;;5001149;28;20334;-59
2022/05/06 06:28:49;;;;;;;;;;;21.60;55.30;;;;;;4997522;28;19924;-57
2022/05/06 06:31:15;;;;;;;;;;;21.60;55.10;;;;;;5001101;28;19967;-58
2022/05/06 06:33:40;;;;;;;;;;;21.50;55.10;;;;;;5000883;28;19913;-58
2022/05/06 06:36:06;;;;;;;;;;;21.60;55.40;;;;;;4999238;28;20306;-57
2022/05/06 06:38:32;;;;;;;;;;;21.60;55.60;;;;;;4998662;28;19913;-60
2022/05/06 06:40:57;;;;;;;;;;;21.60;55.90;;;;;;5000199;28;19930;-58
2022/05/06 06:43:23;;;;;;;;;;;21.60;55.90;;;;;;5015220;28;20354;-57
2022/05/06 06:45:48;;;;;;;;;;;21.60;55.90;;;;;;4999168;28;19921;-58
2022/05/06 06:48:14;;;;;;;;;;;21.60;55.50;;;;;;4999927;28;20357;-58
2022/05/06 06:50:39;;;;;;;;;;;21.60;55.20;;;;;;4997061;28;20003;-57
2022/05/06 06:53:05;;;;;;;;;;;21.50;54.90;;;;;;5015559;28;19918;-58
2022/05/06 06:55:30;;;;;;;;;;;21.50;54.70;;;;;;5000202;28;20438;-59
2022/05/06 06:57:56;;;;;;;;;;;21.50;54.60;;;;;;4999194;28;19917;-58
2022/05/06 07:00:21;;;;;;;;;;;21.50;54.60;;;;;;4996639;28;19917;-59
2022/05/06 07:02:47;;;;;;;;;;;21.50;54.50;;;;;;4997663;28;20412;-59
2022/05/06 07:05:12;;;;;;;;;;;21.50;55.00;;;;;;4997091;28;19928;-57
2022/05/06 07:13:06;;;;;;;;;;;21.50;54.70;;;;;;4997688;28;20032;-57
2022/05/06 07:15:32;;;;;;;;;;;21.40;54.70;;;;;;4998005;28;20322;-58
2022/05/06 07:17:57;;;;;;;;;;;21.50;54.70;;;;;;4996814;28;19940;-58
2022/05/06 07:20:23;;;;;;;;;;;21.40;54.60;;;;;;4998111;28;19971;-58
2022/05/06 07:22:48;;;;;;;;;;;21.50;54.80;;;;;;4997980;28;19925;-58
2022/05/06 07:25:14;;;;;;;;;;;21.40;54.70;;;;;;4999351;28;20434;-57
2022/05/06 07:27:39;;;;;;;;;;;21.40;54.70;;;;;;4997870;28;20248;-58
2022/05/06 07:30:06;;;;;;;;;;;21.50;54.80;;;;;;4998652;28;19924;-58
2022/05/06 07:32:32;;;;;;;;;;;21.40;54.80;;;;;;4998518;28;19956;-56
2022/05/06 07:34:57;;;;;;;;;;;21.40;54.80;;;;;;4999612;28;20363;-58
2022/05/06 07:37:23;;;;;;;;;;;21.40;54.80;;;;;;4999949;28;19918;-57
2022/05/06 07:39:48;;;;;;;;;;;21.40;54.90;;;;;;4997274;28;19957;-59
2022/05/06 07:42:14;;;;;;;;;;;21.40;54.90;;;;;;5003579;28;19924;-57
2022/05/06 07:44:40;;;;;;;;;;;21.40;55.00;;;;;;5018334;28;20342;-58
2022/05/06 07:47:05;;;;;;;;;;;21.40;54.90;;;;;;5016573;28;19920;-59
2022/05/06 07:49:31;;;;;;;;;;;21.40;55.00;;;;;;5000968;28;19971;-58
2022/05/06 07:51:56;;;;;;;;;;;21.40;55.00;;;;;;5003436;28;20374;-57
2022/05/06 07:54:21;;;;;;;;;;;21.40;55.00;;;;;;5002886;28;19941;-58
2022/05/06 07:56:47;;;;;;;;;;;21.40;55.00;;;;;;5004216;28;19917;-59
2022/05/06 07:59:12;;;;;;;;;;;21.30;55.00;;;;;;5002759;28;20032;-58
2022/05/06 08:04:35;;;;;;;;;;;21.40;55.10;;;;;;4983870;28;19945;-58
2022/05/06 08:07:01;;;;;;;;;;;21.40;55.10;;;;;;4986098;28;19945;-58
2022/05/06 08:09:26;;;;;;;;;;;21.30;55.10;;;;;;5002991;28;20645;-57
2022/05/06 08:11:51;;;;;;;;;;;21.30;55.10;;;;;;5002372;28;19925;-55
2022/05/06 08:14:17;;;;;;;;;;;21.30;55.10;;;;;;5019100;28;19917;-55
2022/05/06 08:16:46;;;;;;;;;;;21.30;55.10;;;;;;5017628;28;20321;-57
2022/05/06 08:19:11;;;;;;;;;;;21.30;55.10;;;;;;5001350;28;19923;-53
2022/05/06 08:21:37;;;;;;;;;;;21.30;55.10;;;;;;5003078;28;19918;-57
2022/05/06 08:24:02;;;;;;;;;;;21.30;55.20;;;;;;5002275;28;19921;-57
2022/05/06 08:26:28;;;;;;;;;;;21.30;55.20;;;;;;5003274;28;20004;-57
2022/05/06 08:28:53;;;;;;;;;;;21.30;55.20;;;;;;5001305;28;19937;-57
2022/05/06 08:31:20;;;;;;;;;;;21.30;55.20;;;;;;5002330;28;19937;-57
2022/05/06 08:33:45;;;;;;;;;;;21.30;55.20;;;;;;5002516;28;20012;-58
2022/05/06 08:36:10;;;;;;;;;;;21.30;55.30;;;;;;5002321;28;20204;-56
2022/05/06 08:38:36;;;;;;;;;;;21.30;55.20;;;;;;5001383;28;19925;-56
2022/05/06 08:41:02;;;;;;;;;;;21.30;55.20;;;;;;5002376;28;19917;-56
2022/05/06 08:43:27;;;;;;;;;;;21.30;55.20;;;;;;5000543;28;20434;-58
2022/05/06 08:51:25;;;;;;;;;;;21.30;55.50;;;;;;5002380;28;19923;-58
2022/05/06 08:53:50;;;;;;;;;;;21.30;55.30;;;;;;5000286;28;19917;-56
2022/05/06 08:56:16;;;;;;;;;;;21.30;55.30;;;;;;5016964;28;20325;-57
2022/05/06 08:58:41;;;;;;;;;;;21.20;55.30;;;;;;4998741;28;20054;-57
2022/05/06 09:01:08;;;;;;;;;;;21.20;55.20;;;;;;5001387;28;19940;-57
2022/05/06 09:03:33;;;;;;;;;;;21.30;55.30;;;;;;5000216;28;19914;-57
2022/05/06 09:05:59;;;;;;;;;;;21.30;55.30;;;;;;5016541;28;20670;-56
2022/05/06 09:08:57;;;;;;;;;;;21.20;55.20;;;;;;5013594;28;19917;-57
2022/05/06 09:14:07;;;;;;;;;;;21.30;55.30;;;;;;5000457;28;20055;-55
2022/05/06 09:16:42;;;;;;;;;;;21.20;55.30;;;;;;5016525;28;20016;-55
2022/05/06 09:19:17;;;;;;;;;;;21.20;55.90;;;;;;4999817;28;20008;-56
2022/05/06 09:21:57;;;;;;;;;;;21.20;55.30;;;;;;5000911;28;19920;-58
2022/05/06 09:24:24;;;;;;;;;;;21.20;55.30;;;;;;5001475;28;20378;-56
2022/05/06 09:26:57;;;;;;;;;;;21.20;55.20;;;;;;5000595;28;19924;-58
2022/05/06 09:29:35;;;;;;;;;;;21.20;55.20;;;;;;4999145;28;19933;-57
2022/05/06 09:32:19;;;;;;;;;;;21.20;55.30;;;;;;5017142;28;20421;-57
2022/05/06 09:34:45;;;;;;;;;;;21.20;55.50;;;;;;5001036;28;20056;-57
2022/05/06 09:37:11;;;;;;;;;;;21.30;55.70;;;;;;5001821;28;20007;-58
2022/05/06 09:39:40;;;;;;;;;;;21.20;55.70;;;;;;4999538;28;20318;-57
2022/05/06 09:42:05;;;;;;;;;;;21.30;55.80;;;;;;5002032;28;19925;-58
2022/05/06 09:44:32;;;;;;;;;;;21.30;55.80;;;;;;5009365;28;19917;-58
2022/05/06 09:47:08;;;;;;;;;;;21.20;55.80;;;;;;5001089;28;19920;-56
2022/05/06 09:49:37;;;;;;;;;;;21.20;55.80;;;;;;5000416;28;19921;-58
2022/05/06 09:52:12;;;;;;;;;;;21.30;55.90;;;;;;5001455;28;20570;-57
2022/05/06 09:54:38;;;;;;;;;;;21.20;55.80;;;;;;5000875;28;19971;-57
2022/05/06 09:57:04;;;;;;;;;;;21.30;56.50;;;;;;5000392;28;19921;-57
2022/05/06 09:59:29;;;;;;;;;;;21.20;55.80;;;;;;4998222;28;19921;-56
2022/05/06 10:01:55;;;;;;;;;;;21.20;55.80;;;;;;5002288;28;19917;-56
2022/05/06 10:04:20;;;;;;;;;;;21.20;55.80;;;;;;5001357;28;19925;-57
2022/05/06 10:06:46;;;;;;;;;;;21.20;55.80;;;;;;5001289;28;19967;-57
2022/05/06 10:09:11;;;;;;;;;;;21.20;55.90;;;;;;4998282;28;20267;-57
2022/05/06 10:11:37;;;;;;;;;;;21.30;55.80;;;;;;5016777;28;19917;-55
2022/05/06 10:14:05;;;;;;;;;;;21.30;55.70;;;;;;4998030;28;20699;-56
2022/05/06 10:16:36;;;;;;;;;;;21.30;55.70;;;;;;4999856;28;19929;-57
2022/05/06 10:19:03;;;;;;;;;;;21.30;55.70;;;;;;4998027;28;20529;-57
2022/05/06 10:21:57;;;;;;;;;;;21.30;55.60;;;;;;5015898;28;20020;-56
2022/05/06 10:24:22;;;;;;;;;;;21.30;55.60;;;;;;4998907;28;19933;-57
2022/05/06 10:26:48;;;;;;;;;;;21.30;55.60;;;;;;5000373;28;19918;-57
2022/05/06 10:34:55;;;;;;;;;;;21.30;55.60;;;;;;5012920;28;20015;-58
2022/05/06 10:37:21;;;;;;;;;;;21.30;55.70;;;;;;5001175;28;19913;-58
2022/05/06 10:39:46;;;;;;;;;;;21.20;55.60;;;;;;4999370;28;19976;-57
2022/05/06 10:42:12;;;;;;;;;;;21.30;55.60;;;;;;5015112;28;20379;-55
2022/05/06 10:44:41;;;;;;;;;;;21.30;55.60;;;;;;5015685;28;19921;-58
2022/05/06 10:47:13;;;;;;;;;;;21.20;55.50;;;;;;4989260;28;19944;-57
2022/05/06 10:49:38;;;;;;;;;;;21.20;55.60;;;;;;4999182;28;20004;-58
2022/05/06 10:52:12;;;;;;;;;;;21.20;55.50;;;;;;5000291;28;20000;-57
2022/05/06 10:54:38;;;;;;;;;;;21.20;55.50;;;;;;4999862;28;19957;-57
2022/05/06 10:57:05;;;;;;;;;;;21.30;55.50;;;;;;4997820;28;19960;-58
2022/05/06 10:59:49;;;;;;;;;;;21.30;55.50;;;;;;4981424;28;19932;-57
2022/05/06 11:02:16;;;;;;;;;;;21.30;55.50;;;;;;4980740;28;20012;-57
2022/05/06 11:07:45;;;;;;;;;;;21.30;55.50;;;;;;4983882;28;19925;-57
2022/05/06 11:10:11;;;;;;;;;;;21.30;55.60;;;;;;4999928;28;20020;-64
2022/05/06 11:12:42;;;;;;;;;;;21.30;55.90;;;;;;5002737;28;19918;-57
2022/05/06 11:15:13;;;;;;;;;;;21.30;55.80;;;;;;5002458;28;19913;-56
2022/05/06 11:17:38;;;;;;;;;;;21.30;55.70;;;;;;5003322;28;19996;-58
2022/05/06 11:20:13;;;;;;;;;;;21.30;55.60;;;;;;5002496;28;19993;-56
2022/05/06 11:22:47;;;;;;;;;;;21.30;55.50;;;;;;5004239;28;19932;-57
2022/05/06 11:25:12;;;;;;;;;;;21.30;55.40;;;;;;5012818;28;19988;-54
2022/05/06 11:27:38;;;;;;;;;;;21.30;55.40;;;;;;5011723;28;19914;-57
2022/05/06 11:30:03;;;;;;;;;;;21.30;55.40;;;;;;5004872;28;19917;-57
2022/05/06 11:32:29;;;;;;;;;;;21.30;55.30;;;;;;5006483;28;19920;-56
2022/05/06 11:34:55;;;;;;;;;;;21.30;55.40;;;;;;5021480;28;19924;-57
2022/05/06 11:37:21;;;;;;;;;;;21.30;55.50;;;;;;5006350;28;19914;-56
2022/05/06 11:39:48;;;;;;;;;;;21.30;55.40;;;;;;5004670;28;19963;-58
2022/05/06 11:42:18;;;;;;;;;;;21.30;55.30;;;;;;5005349;28;19914;-56
2022/05/06 11:47:27;;;;;;;;;;;21.30;55.40;;;;;;5005980;28;19961;-57
2022/05/06 11:49:53;;;;;;;;;;;21.30;55.30;;;;;;5004990;28;19945;-56
2022/05/06 11:52:18;;;;;;;;;;;21.30;55.30;;;;;;5004526;28;20382;-58
2022/05/06 11:54:44;;;;;;;;;;;21.30;55.30;;;;;;5005580;28;19945;-57
2022/05/06 11:57:10;;;;;;;;;;;21.30;55.30;;;;;;5006125;28;19918;-58
2022/05/06 11:59:36;;;;;;;;;;;21.40;55.40;;;;;;5002635;28;19913;-57
2022/05/06 12:02:09;;;;;;;;;;;21.40;55.40;;;;;;5005543;28;19967;-58
2022/05/06 12:04:35;;;;;;;;;;;21.30;55.30;;;;;;5003269;28;19949;-57
2022/05/06 12:07:00;;;;;;;;;;;21.40;55.40;;;;;;5005302;28;20668;-56
2022/05/06 12:09:26;;;;;;;;;;;21.40;55.30;;;;;;5003842;28;19917;-55
2022/05/06 12:12:20;;;;;;;;;;;21.40;55.90;;;;;;4987730;28;19913;-56
2022/05/06 12:14:46;;;;;;;;;;;21.40;55.30;;;;;;5012705;28;20385;-58
2022/05/06 12:17:12;;;;;;;;;;;21.50;55.30;;;;;;4998432;28;19924;-57
2022/05/06 12:19:38;;;;;;;;;;;21.40;55.30;;;;;;5004157;28;19920;-57
2022/05/06 12:22:04;;;;;;;;;;;21.40;55.30;;;;;;5004846;28;19918;-53
2022/05/06 12:24:38;;;;;;;;;;;21.40;55.30;;;;;;5004682;28;20264;-54
2022/05/06 12:27:04;;;;;;;;;;;21.40;55.30;;;;;;5004984;28;20514;-57
2022/05/06 12:29:34;;;;;;;;;;;21.40;55.30;;;;;;5004500;28;19924;-57
2022/05/06 12:32:00;;;;;;;;;;;21.40;55.40;;;;;;5016296;28;20007;-56
2022/05/06 12:34:29;;;;;;;;;;;21.40;55.30;;;;;;5005482;28;19999;-57
2022/05/06 12:37:06;;;;;;;;;;;21.40;55.30;;;;;;5003310;28;19991;-56
2022/05/06 12:39:37;;;;;;;;;;;21.40;55.30;;;;;;5003981;28;19918;-57
2022/05/06 12:42:09;;;;;;;;;;;21.40;55.30;;;;;;5016884;28;19918;-57
2022/05/06 12:44:35;;;;;;;;;;;21.40;55.30;;;;;;5003025;28;20329;-57
2022/05/06 12:47:10;;;;;;;;;;;21.40;55.40;;;;;;5004768;28;19929;-57
2022/05/06 12:49:42;;;;;;;;;;;21.40;55.40;;;;;;5002270;28;19968;-56
2022/05/06 12:52:08;;;;;;;;;;;21.40;55.50;;;;;;5004188;28;19924;-57
2022/05/06 12:54:34;;;;;;;;;;;21.40;55.40;;;;;;5004133;28;20395;-56
2022/05/06 12:56:59;;;;;;;;;;;21.40;55.40;;;;;;4999198;28;19917;-57
2022/05/06 12:59:26;;;;;;;;;;;21.40;55.40;;;;;;5003722;28;20421;-58
2022/05/06 13:01:52;;;;;;;;;;;21.40;55.40;;;;;;5019740;28;19923;-56
2022/05/06 13:04:17;;;;;;;;;;;21.40;55.40;;;;;;5003139;28;19917;-57
2022/05/06 13:06:43;;;;;;;;;;;21.40;55.40;;;;;;5004005;28;20371;-56
2022/05/06 13:09:09;;;;;;;;;;;21.50;55.50;;;;;;5002992;28;19914;-53
2022/05/06 13:11:34;;;;;;;;;;;21.40;55.40;;;;;;5003143;28;19921;-56
2022/05/06 13:14:00;;;;;;;;;;;21.40;55.40;;;;;;5004343;28;19921;-58
2022/05/06 13:16:25;;;;;;;;;;;21.40;55.40;;;;;;5002839;28;19975;-57
2022/05/06 13:18:52;;;;;;;;;;;21.50;55.50;;;;;;5002803;28;19917;-56
2022/05/06 13:21:18;;;;;;;;;;;21.40;55.40;;;;;;5003407;28;19940;-57
2022/05/06 13:23:44;;;;;;;;;;;21.40;55.40;;;;;;5007390;28;19975;-56
2022/05/06 13:26:09;;;;;;;;;;;21.40;55.40;;;;;;5004250;28;20144;-56
2022/05/06 13:28:34;;;;;;;;;;;21.40;55.40;;;;;;5002508;28;19921;-57
2022/05/06 13:31:00;;;;;;;;;;;21.50;55.50;;;;;;5002478;28;19918;-56
2022/05/06 13:33:26;;;;;;;;;;;21.50;55.50;;;;;;5003819;28;20189;-57
2022/05/06 13:35:52;;;;;;;;;;;21.40;55.40;;;;;;5003735;28;19943;-58
2022/05/06 13:38:18;;;;;;;;;;;21.40;55.40;;;;;;5012243;28;19921;-58
2022/05/06 13:40:46;;;;;;;;;;;21.50;55.50;;;;;;5002023;28;20383;-57
2022/05/06 13:43:11;;;;;;;;;;;21.40;55.40;;;;;;5004301;28;19940;-57
2022/05/06 13:45:37;;;;;;;;;;;21.50;55.50;;;;;;5003439;28;20378;-55
2022/05/06 13:48:03;;;;;;;;;;;21.50;55.40;;;;;;5003880;28;19913;-56
2022/05/06 13:50:28;;;;;;;;;;;21.50;55.50;;;;;;5001701;28;19920;-58
2022/05/06 13:52:53;;;;;;;;;;;21.40;55.40;;;;;;5003347;28;19960;-57
2022/05/06 13:55:19;;;;;;;;;;;21.50;55.50;;;;;;5003919;28;20577;-57
2022/05/06 14:00:31;;;;;;;;;;;21.40;55.30;;;;;;5001031;28;20330;-57
2022/05/06 14:02:58;;;;;;;;;;;21.50;55.40;;;;;;5003125;28;19933;-57
2022/05/06 14:05:23;;;;;;;;;;;21.50;55.40;;;;;;5002973;28;19917;-57
2022/05/06 14:07:49;;;;;;;;;;;21.50;55.40;;;;;;5018401;28;19914;-56
2022/05/06 14:10:14;;;;;;;;;;;21.50;55.40;;;;;;5002696;28;19920;-56
2022/05/06 14:12:40;;;;;;;;;;;21.50;55.30;;;;;;5002486;28;19920;-56
2022/05/06 14:15:06;;;;;;;;;;;21.50;55.40;;;;;;5003577;28;19914;-58
2022/05/06 14:17:32;;;;;;;;;;;21.50;55.40;;;;;;5003524;28;20395;-57
2022/05/06 14:19:57;;;;;;;;;;;21.50;55.30;;;;;;5000997;28;20004;-57
2022/05/06 14:22:23;;;;;;;;;;;21.50;55.40;;;;;;5003117;28;20365;-58
2022/05/06 14:24:48;;;;;;;;;;;21.50;55.30;;;;;;5003154;28;19925;-57
2022/05/06 14:27:16;;;;;;;;;;;21.50;55.30;;;;;;5002228;28;22334;-57
2022/05/06 14:29:42;;;;;;;;;;;21.50;55.30;;;;;;5002352;28;19984;-56
2022/05/06 14:32:08;;;;;;;;;;;21.50;55.30;;;;;;5002201;28;20073;-57
2022/05/06 14:34:33;;;;;;;;;;;21.60;55.40;;;;;;5002412;28;19988;-57
2022/05/06 14:36:59;;;;;;;;;;;21.60;55.30;;;;;;5003082;28;20631;-55
2022/05/06 14:39:25;;;;;;;;;;;21.50;55.20;;;;;;5002158;28;19922;-57
2022/05/06 14:41:51;;;;;;;;;;;21.50;55.30;;;;;;5001407;28;19921;-57
2022/05/06 14:44:16;;;;;;;;;;;21.50;55.20;;;;;;5003181;28;19929;-56
2022/05/06 14:46:42;;;;;;;;;;;21.50;55.20;;;;;;5002396;28;19914;-58
2022/05/06 14:49:07;;;;;;;;;;;21.50;55.20;;;;;;5000300;28;20454;-57
2022/05/06 14:51:33;;;;;;;;;;;21.50;55.00;;;;;;5018303;28;20287;-58
2022/05/06 14:53:59;;;;;;;;;;;21.50;54.80;;;;;;5003375;28;19914;-54
2022/05/06 14:56:25;;;;;;;;;;;21.50;54.70;;;;;;4985435;28;19921;-57
2022/05/06 14:58:50;;;;;;;;;;;21.50;54.60;;;;;;5002285;28;19924;-57
2022/05/06 15:01:16;;;;;;;;;;;21.50;54.50;;;;;;5003804;28;20421;-58
2022/05/06 15:03:41;;;;;;;;;;;21.50;54.40;;;;;;5001371;28;19921;-57
2022/05/06 15:06:06;;;;;;;;;;;21.50;54.30;;;;;;5002885;28;20366;-58
2022/05/06 15:08:32;;;;;;;;;;;21.50;54.10;;;;;;5001113;28;19929;-56
2022/05/06 15:10:58;;;;;;;;;;;21.50;53.70;;;;;;5002073;28;20005;-57
2022/05/06 15:13:28;;;;;;;;;;;21.50;53.70;;;;;;5003462;28;19999;-55